createdAt,value
2024-02-15T00:02:43.821Z,7.30
2024-02-15T00:06:23.373Z,6.80
2024-02-15T00:09:48.747Z,6.30
2024-02-15T00:13:14.542Z,7.20
2024-02-15T00:16:52.712Z,7.40
2024-02-15T00:20:40.142Z,9.20
2024-02-15T00:24:19.807Z,8.10
2024-02-15T00:27:44.614Z,7.50
2024-02-15T00:31:37.514Z,7.70
2024-02-15T00:35:18.849Z,7.30
2024-02-15T00:38:53.418Z,7.60
2024-02-15T00:42:06.180Z,10.40
2024-02-15T00:45:35.595Z,7.90
2024-02-15T00:49:00.952Z,9.40
2024-02-15T00:57:12.656Z,7.60
2024-02-15T01:08:31.764Z,8.50
2024-02-15T01:12:43.922Z,9.00
2024-02-15T01:16:34.261Z,7.90
2024-02-15T01:19:46.461Z,7.50
2024-02-15T01:23:33.630Z,6.60
2024-02-15T01:27:20.821Z,9.00
2024-02-15T01:31:08.609Z,7.00
2024-02-15T01:34:25.867Z,7.80
2024-02-15T01:42:18.296Z,7.60
2024-02-15T01:45:29.570Z,8.70
2024-02-15T01:48:58.196Z,8.20
2024-02-15T01:52:38.213Z,10.40
2024-02-15T01:55:57.108Z,11.10
2024-02-15T01:59:30.772Z,10.30
2024-02-15T02:03:20.160Z,11.20
2024-02-15T02:07:01.264Z,8.40
2024-02-15T02:10:49.646Z,5.40
2024-02-15T02:14:23.207Z,7.90
2024-02-15T02:17:57.177Z,8.00
2024-02-15T02:21:37.404Z,7.90
2024-02-15T02:28:45.288Z,5.80
2024-02-15T02:32:35.263Z,5.70
2024-02-15T02:36:17.904Z,6.20
2024-02-15T02:39:51.809Z,6.10
2024-02-15T02:43:24.944Z,5.40
2024-02-15T02:51:11.173Z,7.50
2024-02-15T02:54:43.219Z,6.90
2024-02-15T02:58:08.441Z,7.20
2024-02-15T03:01:56.442Z,7.10
2024-02-15T03:05:43.286Z,7.20
2024-02-15T03:09:18.361Z,5.70
2024-02-15T03:13:08.674Z,5.00
2024-02-15T03:16:47.545Z,5.00
2024-02-15T03:20:35.321Z,11.80
2024-02-15T03:24:16.167Z,4.80
2024-02-15T03:27:27.245Z,6.30
2024-02-15T03:30:27.341Z,4.60
2024-02-15T03:33:48.283Z,5.80
2024-02-15T03:37:14.715Z,5.40
2024-02-15T03:40:45.944Z,7.40
2024-02-15T03:48:44.462Z,5.30
2024-02-15T03:52:17.077Z,3.90
2024-02-15T03:55:49.339Z,6.30
2024-02-15T04:04:17.239Z,6.20
2024-02-15T04:07:52.811Z,8.20
2024-02-15T04:11:31.950Z,10.50
2024-02-15T04:15:06.998Z,6.70
2024-02-15T04:18:48.141Z,7.30
2024-02-15T04:25:26.682Z,7.70
2024-02-15T04:29:10.825Z,6.10
2024-02-15T04:37:19.877Z,7.10
2024-02-15T04:40:53.255Z,14.30
2024-02-15T04:44:28.519Z,6.70
2024-02-15T04:47:49.908Z,5.70
2024-02-15T04:51:08.882Z,6.80
2024-02-15T04:57:35.094Z,12.60
2024-02-15T05:01:05.177Z,7.00
2024-02-15T05:04:30.979Z,12.40
2024-02-15T05:08:09.588Z,7.60
2024-02-15T05:11:32.366Z,8.90
2024-02-15T05:14:50.000Z,6.20
2024-02-15T05:18:08.920Z,7.10
2024-02-15T05:21:47.711Z,8.70
2024-02-15T05:25:08.124Z,6.20
2024-02-15T05:28:09.478Z,8.30
2024-02-15T05:31:46.527Z,11.50
2024-02-15T05:38:17.635Z,5.70
2024-02-15T05:45:56.936Z,9.20
2024-02-15T05:49:18.118Z,7.00
2024-02-15T05:52:47.758Z,7.30
2024-02-15T05:56:33.183Z,9.20
2024-02-15T05:59:46.166Z,6.10
2024-02-15T06:02:46.641Z,7.20
2024-02-15T06:06:01.010Z,7.70
2024-02-15T06:08:48.164Z,8.20
2024-02-15T06:12:13.317Z,10.10
2024-02-15T06:15:44.294Z,5.60
2024-02-15T06:19:08.923Z,10.50
2024-02-15T06:23:29.694Z,17.90
2024-02-15T06:27:00.278Z,7.70
2024-02-15T06:30:29.793Z,5.50
2024-02-15T06:34:10.357Z,6.30
2024-02-15T06:38:32.511Z,6.60
2024-02-15T06:42:08.371Z,28.90
2024-02-15T06:45:43.401Z,4.30
2024-02-15T06:51:32.183Z,8.40
2024-02-15T06:54:22.352Z,12.30
2024-02-15T06:56:59.020Z,15.00
2024-02-15T06:59:26.939Z,10.70
2024-02-15T07:02:20.617Z,5.40
2024-02-15T07:05:11.088Z,7.20
2024-02-15T07:08:11.708Z,8.30
2024-02-15T07:10:59.077Z,5.40
2024-02-15T07:14:47.410Z,7.50
2024-02-15T07:17:49.196Z,8.40
2024-02-15T07:26:01.885Z,11.50
2024-02-15T07:29:43.373Z,7.70
2024-02-15T07:33:17.535Z,5.40
2024-02-15T07:36:39.885Z,7.30
2024-02-15T07:40:23.971Z,7.50
2024-02-15T07:44:01.635Z,11.80
2024-02-15T07:47:27.653Z,12.00
2024-02-15T07:51:00.143Z,6.30
2024-02-15T07:58:08.962Z,9.70
2024-02-15T08:01:55.999Z,5.30
2024-02-15T08:05:41.017Z,5.40
2024-02-15T08:09:28.243Z,4.90
2024-02-15T08:13:08.254Z,9.20
2024-02-15T08:16:49.668Z,12.20
2024-02-15T08:20:37.081Z,6.70
2024-02-15T08:24:10.411Z,9.40
2024-02-15T08:27:50.034Z,7.00
2024-02-15T08:31:30.808Z,10.70
2024-02-15T08:35:05.924Z,9.60
2024-02-15T08:38:54.371Z,10.50
2024-02-15T08:42:48.070Z,6.00
2024-02-15T08:46:31.840Z,6.80
2024-02-15T08:50:27.536Z,5.50
2024-02-15T08:54:04.748Z,11.80
2024-02-15T09:01:54.960Z,11.70
2024-02-15T09:05:32.318Z,11.70
2024-02-15T09:09:07.061Z,15.40
2024-02-15T09:16:57.550Z,7.50
2024-02-15T09:24:42.497Z,9.30
2024-02-15T09:28:09.146Z,6.90
2024-02-15T09:31:50.276Z,7.90
2024-02-15T09:36:20.081Z,6.10
2024-02-15T09:39:55.503Z,7.90
2024-02-15T09:43:40.249Z,8.70
2024-02-15T09:47:13.929Z,7.10
2024-02-15T09:51:14.557Z,13.60
2024-02-15T09:54:52.147Z,9.80
2024-02-15T09:58:40.379Z,11.60
2024-02-15T10:02:02.036Z,9.10
2024-02-15T10:05:26.056Z,14.90
2024-02-15T10:08:45.305Z,11.40
2024-02-15T10:11:31.243Z,13.30
2024-02-15T10:15:22.832Z,13.40
2024-02-15T10:19:01.846Z,10.30
2024-02-15T10:22:29.276Z,11.80
2024-02-15T10:26:19.681Z,11.50
2024-02-15T10:30:09.952Z,10.70
2024-02-15T10:34:01.992Z,7.90
2024-02-15T10:37:56.091Z,8.70
2024-02-15T10:41:37.905Z,10.80
2024-02-15T10:45:13.839Z,8.90
2024-02-15T10:49:02.460Z,11.00
2024-02-15T10:52:44.731Z,7.00
2024-02-15T10:56:19.396Z,9.40
2024-02-15T11:00:03.174Z,10.60
2024-02-15T11:03:43.204Z,13.10
2024-02-15T11:07:12.456Z,12.20
2024-02-15T11:10:44.538Z,9.10
2024-02-15T11:14:03.140Z,11.30
2024-02-15T11:17:42.618Z,6.70
2024-02-15T11:21:25.907Z,9.90
2024-02-15T11:25:17.142Z,7.90
2024-02-15T11:28:55.261Z,8.00
2024-02-15T11:32:33.190Z,7.80
2024-02-15T11:36:11.841Z,16.50
2024-02-15T11:39:51.358Z,10.80
2024-02-15T11:43:26.112Z,10.40
2024-02-15T11:55:15.220Z,12.00
2024-02-15T11:59:05.038Z,14.10
2024-02-15T12:02:18.460Z,11.60
2024-02-15T12:05:40.998Z,12.20
2024-02-15T12:08:49.160Z,7.20
2024-02-15T12:12:28.849Z,4.50
2024-02-15T12:16:21.278Z,10.00
2024-02-15T12:20:12.630Z,6.70
2024-02-15T12:23:37.439Z,6.50
2024-02-15T12:27:12.669Z,8.30
2024-02-15T12:30:47.333Z,9.70
2024-02-15T12:35:45.050Z,14.20
2024-02-15T12:38:50.181Z,12.10
2024-02-15T12:42:31.040Z,8.10
2024-02-15T12:46:20.187Z,7.60
2024-02-15T12:49:59.161Z,7.20
2024-02-15T12:54:34.209Z,8.40
2024-02-15T12:58:35.985Z,10.10
2024-02-15T13:02:24.639Z,15.50
2024-02-15T13:07:01.431Z,13.10
2024-02-15T13:10:02.078Z,11.50
2024-02-15T13:13:45.293Z,15.30
2024-02-15T13:17:29.643Z,7.40
2024-02-15T13:20:55.636Z,25.40
2024-02-15T13:24:05.529Z,8.80
2024-02-15T13:27:44.276Z,14.20
2024-02-15T13:31:35.015Z,10.80
2024-02-15T13:34:31.096Z,16.70
2024-02-15T13:37:41.438Z,19.60
2024-02-15T13:40:45.990Z,16.30
2024-02-15T13:43:24.300Z,9.60
2024-02-15T13:46:12.298Z,14.20
2024-02-15T13:49:12.101Z,18.20
2024-02-15T13:52:36.960Z,9.50
2024-02-15T13:55:31.475Z,9.90
2024-02-15T13:58:42.151Z,7.90
2024-02-15T14:01:39.162Z,14.40
2024-02-15T14:05:23.153Z,10.40
2024-02-15T14:08:29.475Z,9.80
2024-02-15T14:11:09.861Z,11.00
2024-02-15T14:14:30.666Z,12.60
2024-02-15T14:20:08.104Z,20.40
2024-02-15T14:23:44.817Z,11.00
2024-02-15T14:27:22.366Z,7.40
2024-02-15T14:30:32.825Z,9.70
2024-02-15T14:34:02.289Z,9.10
2024-02-15T14:36:38.462Z,10.40
2024-02-15T14:39:32.151Z,11.20
2024-02-15T14:42:22.824Z,10.00
2024-02-15T14:45:02.667Z,12.40
2024-02-15T14:48:33.360Z,11.60
2024-02-15T14:51:53.369Z,5.80
2024-02-15T14:54:24.545Z,8.20
2024-02-15T14:57:28.779Z,10.70
2024-02-15T15:05:37.787Z,8.30
2024-02-15T15:08:39.254Z,9.00
2024-02-15T15:11:52.391Z,12.50
2024-02-15T15:15:13.260Z,9.10
2024-02-15T15:18:19.163Z,13.80
2024-02-15T15:21:27.934Z,8.70
2024-02-15T15:24:19.339Z,12.80
2024-02-15T15:30:50.043Z,9.00
2024-02-15T15:33:58.003Z,6.80
2024-02-15T15:37:24.420Z,6.10
2024-02-15T15:40:36.630Z,13.30
2024-02-15T15:43:36.133Z,8.80
2024-02-15T15:47:20.251Z,12.80
2024-02-15T15:53:24.198Z,7.80
2024-02-15T15:56:26.588Z,10.30
2024-02-15T16:05:33.909Z,18.00
2024-02-15T16:08:32.880Z,19.30
2024-02-15T16:11:42.926Z,15.00
2024-02-15T16:14:42.899Z,18.10
2024-02-15T16:18:36.223Z,23.80
2024-02-15T16:25:21.078Z,15.80
2024-02-15T16:32:49.596Z,21.80
2024-02-15T16:50:48.790Z,17.30
2024-02-15T16:58:34.770Z,17.50
2024-02-15T17:04:19.278Z,19.90
2024-02-15T17:07:01.919Z,27.90
2024-02-15T17:09:33.445Z,17.50
2024-02-15T17:12:07.078Z,20.20
2024-02-15T17:15:09.229Z,12.50
2024-02-15T17:19:30.555Z,21.00
2024-02-15T17:21:47.535Z,18.90
2024-02-15T17:27:19.875Z,17.50
2024-02-15T17:29:36.510Z,21.90
2024-02-15T17:32:14.073Z,18.00
2024-02-15T17:34:45.379Z,21.80
2024-02-15T17:37:24.449Z,17.50
2024-02-15T17:39:57.051Z,18.60
2024-02-15T17:42:27.624Z,22.80
2024-02-15T17:45:01.342Z,23.30
2024-02-15T17:48:20.497Z,22.10
2024-02-15T17:51:33.601Z,33.70
2024-02-15T17:54:56.046Z,11.10
2024-02-15T17:57:49.291Z,22.80
2024-02-15T18:00:23.724Z,14.70
2024-02-15T18:03:10.298Z,16.90
2024-02-15T18:06:36.445Z,21.50
2024-02-15T18:09:21.752Z,17.40
2024-02-15T18:11:52.559Z,20.90
2024-02-15T18:14:22.719Z,20.00
2024-02-15T18:17:13.671Z,23.00
2024-02-15T18:19:41.217Z,18.60
2024-02-15T18:22:24.088Z,28.60
2024-02-15T18:25:03.273Z,21.50
2024-02-15T18:28:19.454Z,24.40
2024-02-15T18:30:50.048Z,29.70
2024-02-15T18:33:18.259Z,25.80
2024-02-15T18:36:05.135Z,32.90
2024-02-15T18:38:39.052Z,36.20
2024-02-15T18:41:47.926Z,33.60
2024-02-15T18:44:19.477Z,29.60
2024-02-15T18:47:02.558Z,30.50
2024-02-15T18:49:34.752Z,29.80
2024-02-15T18:52:18.862Z,33.90
2024-02-15T18:58:09.218Z,23.60
2024-02-15T19:01:13.922Z,28.80
2024-02-15T19:04:18.061Z,31.20
2024-02-15T19:07:22.580Z,21.30
2024-02-15T19:10:22.476Z,21.40
2024-02-15T19:13:22.621Z,20.90
2024-02-15T19:15:58.589Z,20.80
2024-02-15T19:19:00.499Z,20.10
2024-02-15T19:21:34.007Z,24.30
2024-02-15T19:25:15.223Z,21.40
2024-02-15T19:27:49.334Z,18.90
2024-02-15T19:30:40.721Z,22.80
2024-02-15T19:33:56.653Z,22.20
2024-02-15T19:36:37.385Z,23.70
2024-02-15T19:39:11.431Z,24.10
2024-02-15T19:41:50.197Z,23.40
2024-02-15T19:44:27.156Z,25.30
2024-02-15T19:47:18.812Z,22.30
2024-02-15T19:50:04.090Z,26.20
2024-02-15T19:52:50.445Z,22.80
2024-02-15T19:55:42.530Z,25.40
2024-02-15T19:58:15.866Z,18.80
2024-02-15T20:00:49.774Z,17.40
2024-02-15T20:03:17.717Z,23.20
2024-02-15T20:05:59.202Z,24.10
2024-02-15T20:08:32.554Z,22.40
2024-02-15T20:11:03.520Z,26.50
2024-02-15T20:14:06.948Z,29.70
2024-02-15T20:16:35.459Z,24.40
2024-02-15T20:19:08.311Z,25.00
2024-02-15T20:24:25.402Z,26.60
2024-02-15T20:27:00.464Z,18.80
2024-02-15T20:29:31.124Z,21.90
2024-02-15T20:32:09.506Z,21.90
2024-02-15T20:34:40.211Z,18.90
2024-02-15T20:37:08.301Z,17.30
2024-02-15T20:39:36.094Z,14.30
2024-02-15T20:42:11.677Z,16.70
2024-02-15T20:44:42.878Z,15.30
2024-02-15T20:47:12.058Z,15.20
2024-02-15T20:49:49.285Z,15.70
2024-02-15T20:52:19.690Z,19.10
2024-02-15T20:55:07.863Z,13.00
2024-02-15T20:57:48.403Z,16.80
2024-02-15T21:00:20.484Z,16.30
2024-02-15T21:02:51.137Z,16.90
2024-02-15T21:05:30.645Z,17.10
2024-02-15T21:08:10.424Z,13.50
2024-02-15T21:10:38.106Z,13.60
2024-02-15T21:13:29.643Z,13.20
2024-02-15T21:16:18.514Z,13.20
2024-02-15T21:18:55.019Z,14.10
2024-02-15T21:21:22.863Z,11.50
2024-02-15T21:23:51.024Z,11.60
2024-02-15T21:26:22.613Z,17.00
2024-02-15T21:28:51.009Z,13.70
2024-02-15T21:31:19.692Z,17.70
2024-02-15T21:33:52.471Z,16.80
2024-02-15T21:36:23.863Z,14.80
2024-02-15T21:38:57.343Z,16.10
2024-02-15T21:41:27.730Z,14.40
2024-02-15T21:43:58.359Z,20.50
2024-02-15T21:46:33.400Z,19.50
2024-02-15T21:49:11.883Z,26.40
2024-02-15T21:51:49.956Z,25.80
2024-02-15T21:54:19.872Z,26.30
2024-02-15T21:56:53.497Z,26.00
2024-02-15T21:59:23.208Z,24.70
2024-02-15T22:01:52.532Z,23.50
2024-02-15T22:04:34.006Z,21.00
2024-02-15T22:07:24.227Z,22.70
2024-02-15T22:10:01.934Z,25.10
2024-02-15T22:12:41.008Z,20.40
2024-02-15T22:15:11.191Z,17.50
2024-02-15T22:17:39.534Z,20.30
2024-02-15T22:20:35.734Z,25.40
2024-02-15T22:23:18.846Z,27.30
2024-02-15T22:25:57.282Z,26.30
2024-02-15T22:28:47.132Z,25.20
2024-02-15T22:31:24.817Z,15.90
2024-02-15T22:33:52.993Z,25.00
2024-02-15T22:36:46.248Z,19.60
2024-02-15T22:39:43.287Z,18.60
2024-02-15T22:42:14.339Z,13.70
2024-02-15T22:45:04.718Z,13.20
2024-02-15T22:47:49.344Z,10.20
2024-02-15T22:50:47.422Z,10.20
2024-02-15T22:53:20.555Z,11.80
2024-02-15T22:55:48.485Z,11.20
2024-02-15T22:58:51.057Z,8.90
2024-02-15T23:01:32.328Z,9.50
2024-02-15T23:04:00.190Z,10.30
2024-02-15T23:07:02.317Z,9.80
2024-02-15T23:09:30.365Z,5.60
2024-02-15T23:12:02.793Z,9.90
2024-02-15T23:14:39.588Z,9.30
2024-02-15T23:17:07.968Z,11.50
2024-02-15T23:19:36.166Z,9.80
2024-02-15T23:22:26.491Z,10.30
2024-02-15T23:25:00.374Z,9.90
2024-02-15T23:27:35.293Z,9.90
2024-02-15T23:30:04.320Z,9.10
2024-02-15T23:32:37.079Z,10.00
2024-02-15T23:35:16.545Z,8.20
2024-02-15T23:38:04.735Z,11.40
2024-02-15T23:40:35.203Z,10.00
2024-02-15T23:43:02.991Z,7.20
2024-02-15T23:45:39.177Z,9.00
2024-02-15T23:48:24.030Z,9.80
2024-02-15T23:50:55.153Z,10.30
2024-02-15T23:53:32.913Z,11.00
2024-02-15T23:56:00.768Z,10.10
2024-02-15T23:58:37.751Z,5.40
